Clearfield, Pennsylvania
Current Conditions -  °F | °C
As of 7:54 PM on Wednesday 22 Oct 2014 (Local Time) from KFIG Reporting Station
Overcast Overcast  
Wind Chill:   Ceiling: 1500
Heat Index:   Visibility: 10mi
Dew Point:   Wind: 10mph
Humidity: 79%   Direction: 350°N
Pressure: 30.12"   Gusts: NA
Location:  41.02°N, 78.44°W
Report Text: KFIG 222354Z AUTO 35009KT 10SM OVC015 08/04 A3012 RMK AO2 SLP208 T00780044 10094 20078 53005
Loading
Personal Weather Stations






























Interactive Weather Map
Tropical Storm Tracking
New forecast layout! Learn more

10-Day Weather Forecast

Advertisements
Track Severe Weather on mobile